Time;durP1;ratioP1;P1;durP2;ratioP2;P2;SDS_P1;SDS_P2;PMS_P1;PMS_P2;Temp;Humidity;BMP_temperature;BMP_pressure;BME280_temperature;BME280_humidity;BME280_pressure;Samples;Min_cycle;Max_cycle;Signal;HPM_P1;HPM_P2
2022/01/11 00:02:16;;;;;;;35.23;18.53;;;;;;;1.12;100.00;99554.31;4952192;28;20039;-58
2022/01/11 00:04:42;;;;;;;33.40;17.67;;;;;;;1.07;100.00;99560.88;4950002;28;20027;-57
2022/01/11 00:07:12;;;;;;;34.00;17.03;;;;;;;1.02;100.00;99559.84;4949038;28;20043;-57
2022/01/11 00:09:42;;;;;;;33.90;17.57;;;;;;;1.07;100.00;99557.50;4952337;28;20034;-57
2022/01/11 00:12:10;;;;;;;32.83;16.53;;;;;;;1.05;100.00;99556.59;4950890;28;20178;-57
2022/01/11 00:14:36;;;;;;;34.60;16.37;;;;;;;1.06;100.00;99554.09;4947696;28;20027;-59
2022/01/11 00:17:03;;;;;;;31.13;16.80;;;;;;;1.15;100.00;99567.03;4949924;28;20107;-55
2022/01/11 00:19:29;;;;;;;34.50;16.40;;;;;;;1.17;100.00;99587.31;4951165;28;20066;-57
2022/01/11 00:21:55;;;;;;;31.13;15.17;;;;;;;0.93;100.00;99576.38;4952174;28;20537;-58
2022/01/11 00:24:32;;;;;;;29.90;15.93;;;;;;;1.03;100.00;99588.50;4950075;28;20283;-58
2022/01/11 00:26:57;;;;;;;34.77;19.80;;;;;;;0.91;100.00;99589.81;4951739;28;20046;-58
2022/01/11 00:29:23;;;;;;;29.67;16.47;;;;;;;0.93;100.00;99589.88;4937684;28;20027;-58
2022/01/11 00:31:49;;;;;;;33.20;18.40;;;;;;;0.98;100.00;99590.03;4952102;28;20045;-57
2022/01/11 00:34:17;;;;;;;31.97;15.87;;;;;;;0.93;100.00;99595.75;4947033;28;20074;-57
2022/01/11 00:36:42;;;;;;;40.33;18.33;;;;;;;0.91;100.00;99599.91;4950577;28;20078;-57
2022/01/11 00:39:09;;;;;;;34.83;18.07;;;;;;;0.96;100.00;99596.69;4945064;28;20515;-58
2022/01/11 00:41:42;;;;;;;33.30;16.87;;;;;;;0.99;100.00;99596.78;4948904;28;20302;-58
2022/01/11 00:44:09;;;;;;;31.87;16.67;;;;;;;0.82;100.00;99594.53;4950647;28;20113;-57
2022/01/11 00:46:35;;;;;;;30.43;16.80;;;;;;;0.89;100.00;99598.13;4952466;28;20053;-57
2022/01/11 00:49:00;;;;;;;30.03;16.80;;;;;;;1.08;100.00;99612.22;4941193;28;20034;-57
2022/01/11 00:51:26;;;;;;;33.17;16.17;;;;;;;1.00;100.00;99606.06;4947675;28;20148;-57
2022/01/11 00:53:52;;;;;;;30.87;17.77;;;;;;;0.88;100.00;99602.31;4949523;28;20266;-57
2022/01/11 00:56:17;;;;;;;34.13;17.30;;;;;;;0.89;100.00;99606.53;4951978;28;20031;-57
2022/01/11 00:58:43;;;;;;;33.07;18.37;;;;;;;0.93;100.00;99613.41;4948187;28;20556;-56
2022/01/11 01:01:08;;;;;;;34.43;19.47;;;;;;;0.81;100.00;99613.00;4950935;28;20030;-56
2022/01/11 01:03:35;;;;;;;34.90;18.13;;;;;;;0.86;100.00;99614.03;4947761;28;20029;-57
2022/01/11 01:06:01;;;;;;;37.53;19.13;;;;;;;0.88;100.00;99622.53;4953595;28;20044;-56
2022/01/11 01:08:26;;;;;;;38.70;18.13;;;;;;;0.74;100.00;99612.72;4951830;28;20046;-58
2022/01/11 01:10:52;;;;;;;38.43;19.67;;;;;;;0.69;100.00;99620.13;4950170;28;20118;-56
2022/01/11 01:13:21;;;;;;;31.37;18.47;;;;;;;0.71;100.00;99622.72;4948568;28;20144;-58
2022/01/11 01:15:49;;;;;;;39.77;19.00;;;;;;;0.71;100.00;99632.81;4950548;28;20055;-57
2022/01/11 01:18:17;;;;;;;35.57;19.80;;;;;;;0.73;100.00;99634.56;4952397;28;20489;-56
2022/01/11 01:20:45;;;;;;;38.07;20.20;;;;;;;0.62;100.00;99633.34;4952005;28;20126;-58
2022/01/11 01:23:11;;;;;;;38.47;19.23;;;;;;;0.56;100.00;99640.69;4953576;28;20026;-58
2022/01/11 01:25:37;;;;;;;39.83;20.27;;;;;;;0.61;100.00;99638.31;4955755;28;20353;-58
2022/01/11 01:28:02;;;;;;;38.63;20.07;;;;;;;0.58;100.00;99645.78;4953200;28;20386;-58
2022/01/11 01:30:28;;;;;;;39.77;22.00;;;;;;;0.54;100.00;99643.97;4953824;28;20118;-58
2022/01/11 01:32:53;;;;;;;38.67;20.00;;;;;;;0.43;100.00;99643.53;4953406;28;20063;-58
2022/01/11 01:35:23;;;;;;;43.03;21.07;;;;;;;0.49;100.00;99647.97;4956514;28;20038;-58
2022/01/11 01:37:49;;;;;;;38.60;19.20;;;;;;;0.41;100.00;99650.22;4953633;28;20183;-57
2022/01/11 01:40:17;;;;;;;42.47;22.13;;;;;;;0.36;100.00;99647.50;4946212;28;20030;-58
2022/01/11 01:42:44;;;;;;;42.70;21.40;;;;;;;0.36;100.00;99649.16;4953022;28;20031;-58
2022/01/11 01:45:10;;;;;;;40.57;20.60;;;;;;;0.35;100.00;99652.50;4958883;28;20045;-57
2022/01/11 01:47:35;;;;;;;38.73;21.43;;;;;;;0.38;100.00;99650.09;4951620;28;20054;-58
2022/01/11 01:50:03;;;;;;;40.83;19.87;;;;;;;0.37;100.00;99658.47;4951672;28;20424;-56
2022/01/11 01:52:28;;;;;;;40.50;20.87;;;;;;;0.40;100.00;99659.44;4951769;28;20031;-57
2022/01/11 01:54:56;;;;;;;40.03;19.17;;;;;;;0.35;100.00;99658.41;4957740;28;20113;-58
2022/01/11 01:57:21;;;;;;;43.90;20.57;;;;;;;0.24;100.00;99666.38;4954320;28;20039;-58
2022/01/11 01:59:47;;;;;;;47.17;22.77;;;;;;;0.29;100.00;99669.94;4950751;28;20042;-59
2022/01/11 02:02:13;;;;;;;43.40;21.07;;;;;;;0.30;100.00;99677.53;4951268;28;20047;-59
2022/01/11 02:04:41;;;;;;;44.40;21.70;;;;;;;0.38;100.00;99672.81;4951630;28;20485;-58
2022/01/11 02:07:07;;;;;;;42.63;22.50;;;;;;;0.25;100.00;99653.81;4952535;28;20114;-58
2022/01/11 02:09:33;;;;;;;43.73;22.07;;;;;;;0.23;100.00;99657.06;4953404;28;20043;-58
2022/01/11 02:11:58;;;;;;;42.13;20.33;;;;;;;0.19;100.00;99660.28;4953615;28;20040;-57
2022/01/11 02:14:26;;;;;;;43.83;22.23;;;;;;;0.17;100.00;99665.25;4952065;28;20399;-59
2022/01/11 02:16:52;;;;;;;41.80;22.00;;;;;;;0.03;100.00;99650.41;4951954;28;20074;-58
2022/01/11 02:19:17;;;;;;;47.53;22.97;;;;;;;0.12;100.00;99666.75;4954114;28;20035;-58
2022/01/11 02:21:43;;;;;;;48.13;23.60;;;;;;;0.08;100.00;99680.06;4954898;28;20031;-58
2022/01/11 02:24:08;;;;;;;51.27;23.07;;;;;;;0.04;100.00;99677.34;4953369;28;20558;-59
2022/01/11 02:26:33;;;;;;;45.70;20.57;;;;;;;0.08;100.00;99684.22;4950473;28;20402;-57
2022/01/11 02:28:59;;;;;;;45.20;23.83;;;;;;;-0.06;100.00;99676.13;4952983;28;20414;-56
2022/01/11 02:31:24;;;;;;;53.30;23.57;;;;;;;-0.02;100.00;99683.84;4952702;28;20041;-55
2022/01/11 02:33:57;;;;;;;47.17;24.83;;;;;;;-0.01;100.00;99685.59;4953448;28;20520;-57
2022/01/11 02:36:29;;;;;;;49.00;24.53;;;;;;;-0.10;100.00;99689.41;4952004;28;20469;-57
2022/01/11 02:38:55;;;;;;;49.80;22.33;;;;;;;-0.08;100.00;99688.66;4954542;28;20482;-57
2022/01/11 02:41:21;;;;;;;51.17;22.73;;;;;;;-0.14;100.00;99690.06;4952181;28;20047;-58
2022/01/11 02:43:48;;;;;;;48.03;22.90;;;;;;;-0.16;100.00;99692.53;4957288;28;20062;-59
2022/01/11 02:46:23;;;;;;;54.50;25.17;;;;;;;-0.17;100.00;99685.75;4951898;28;20458;-54
2022/01/11 02:48:51;;;;;;;54.72;24.55;;;;;;;-0.17;100.00;99687.44;4955670;28;20051;-59
2022/01/11 02:51:17;;;;;;;47.60;22.90;;;;;;;-0.29;100.00;99691.97;4952812;28;20410;-57
2022/01/11 02:53:46;;;;;;;49.37;24.47;;;;;;;-0.25;100.00;99699.69;4952440;28;20126;-57
2022/01/11 02:56:13;;;;;;;49.33;22.67;;;;;;;-0.23;100.00;99698.13;4952282;28;20529;-59
2022/01/11 02:58:39;;;;;;;45.53;23.93;;;;;;;-0.28;100.00;99704.63;4955621;28;20359;-58
2022/01/11 03:01:06;;;;;;;50.30;24.70;;;;;;;-0.23;100.00;99702.28;4953363;28;20046;-58
2022/01/11 03:03:32;;;;;;;49.60;22.67;;;;;;;-0.28;100.00;99709.66;4953286;28;20038;-59
2022/01/11 03:06:02;;;;;;;54.63;23.73;;;;;;;-0.35;100.00;99712.75;4953847;28;20035;-58
2022/01/11 03:08:32;;;;;;;46.50;23.67;;;;;;;-0.34;100.00;99709.41;4958585;28;20134;-58
2022/01/11 03:10:59;;;;;;;46.73;21.80;;;;;;;-0.32;100.00;99712.00;4954795;28;20649;-58
2022/01/11 03:13:25;;;;;;;50.73;22.70;;;;;;;-0.36;100.00;99711.00;4953985;28;20039;-58
2022/01/11 03:15:52;;;;;;;49.67;22.77;;;;;;;-0.26;100.00;99717.28;4952888;28;20528;-58
2022/01/11 03:18:20;;;;;;;48.53;23.03;;;;;;;-0.23;100.00;99717.41;4956689;28;20023;-56
2022/01/11 03:20:47;;;;;;;49.23;23.17;;;;;;;-0.28;100.00;99718.88;4956830;28;20043;-57
2022/01/11 03:23:14;;;;;;;49.57;23.83;;;;;;;-0.25;100.00;99727.41;4953504;28;20127;-56
2022/01/11 03:25:41;;;;;;;49.40;24.57;;;;;;;-0.23;100.00;99727.50;4954626;28;20078;-55
2022/01/11 03:28:06;;;;;;;46.93;22.70;;;;;;;-0.19;100.00;99726.81;4956467;28;20026;-53
2022/01/11 03:30:33;;;;;;;45.27;21.70;;;;;;;-0.22;100.00;99725.03;4955488;28;20671;-55
2022/01/11 03:32:59;;;;;;;50.17;23.13;;;;;;;-0.26;100.00;99728.25;4954269;28;20027;-56
2022/01/11 03:35:26;;;;;;;50.90;23.90;;;;;;;-0.24;100.00;99726.63;4956639;28;20046;-55
2022/01/11 03:37:52;;;;;;;45.33;22.67;;;;;;;-0.24;100.00;99728.28;4958057;28;20090;-56
2022/01/11 03:40:20;;;;;;;38.67;19.83;;;;;;;-0.14;100.00;99728.72;4955547;28;20133;-57
2022/01/11 03:42:47;;;;;;;44.33;21.10;;;;;;;-0.20;100.00;99731.00;4953200;28;20035;-56
2022/01/11 03:45:14;;;;;;;46.60;20.17;;;;;;;-0.25;100.00;99740.00;4954840;28;20038;-55
2022/01/11 03:47:40;;;;;;;53.07;23.23;;;;;;;-0.20;100.00;99745.25;4954733;28;20127;-55
2022/01/11 03:50:08;;;;;;;46.17;22.27;;;;;;;-0.16;100.00;99735.34;4955480;28;20121;-57
2022/01/11 03:52:35;;;;;;;53.43;24.87;;;;;;;-0.27;100.00;99748.31;4955291;28;20453;-54
2022/01/11 03:55:05;;;;;;;50.67;21.13;;;;;;;-0.29;100.00;99743.22;4954996;28;20528;-53
2022/01/11 03:57:32;;;;;;;45.03;21.37;;;;;;;-0.29;100.00;99750.75;4958656;28;20034;-55
2022/01/11 04:00:06;;;;;;;46.50;23.03;;;;;;;-0.29;100.00;99753.28;4961058;28;20031;-53
2022/01/11 04:02:31;;;;;;;49.40;22.43;;;;;;;-0.46;100.00;99752.56;4962819;28;20082;-55
2022/01/11 04:04:57;;;;;;;49.70;23.33;;;;;;;-0.42;100.00;99755.25;4956941;28;20038;-53
2022/01/11 04:07:26;;;;;;;48.17;23.13;;;;;;;-0.47;100.00;99765.13;4957932;28;20037;-53
2022/01/11 04:09:54;;;;;;;46.30;21.90;;;;;;;-0.48;100.00;99761.75;4953530;28;20515;-58
2022/01/11 04:12:21;;;;;;;45.60;22.03;;;;;;;-0.38;100.00;99759.63;4954411;28;20038;-58
2022/01/11 04:14:47;;;;;;;48.57;21.63;;;;;;;-0.53;100.00;99757.28;4956663;28;20121;-58
2022/01/11 04:17:12;;;;;;;48.80;21.47;;;;;;;-0.54;100.00;99763.13;4954206;28;20549;-59
2022/01/11 04:19:38;;;;;;;43.87;20.47;;;;;;;-0.59;100.00;99767.09;4951428;28;20031;-58
2022/01/11 04:22:04;;;;;;;45.33;21.67;;;;;;;-0.57;100.00;99766.38;4954965;28;20041;-59
2022/01/11 04:24:30;;;;;;;43.90;21.10;;;;;;;-0.61;100.00;99763.66;4956621;28;20068;-56
2022/01/11 04:26:56;;;;;;;49.60;22.20;;;;;;;-0.74;100.00;99762.28;4955838;28;20038;-56
2022/01/11 04:29:21;;;;;;;49.77;22.10;;;;;;;-0.67;100.00;99764.25;4953216;28;20118;-57
2022/01/11 04:31:47;;;;;;;45.40;20.30;;;;;;;-0.70;100.00;99765.78;4954706;28;20138;-57
2022/01/11 04:34:12;;;;;;;51.00;23.73;;;;;;;-0.71;100.00;99761.53;4954143;28;20046;-57
2022/01/11 04:36:38;;;;;;;50.03;22.40;;;;;;;-0.69;100.00;99768.38;4954881;28;20186;-57
2022/01/11 04:39:05;;;;;;;49.23;22.70;;;;;;;-0.69;100.00;99782.63;4952498;28;20125;-55
2022/01/11 04:41:31;;;;;;;45.13;22.60;;;;;;;-0.60;100.00;99781.38;4954689;28;20093;-56
2022/01/11 04:43:56;;;;;;;50.17;23.07;;;;;;;-0.61;100.00;99773.75;4943282;28;20377;-57
2022/01/11 04:46:22;;;;;;;50.13;22.17;;;;;;;-0.71;100.00;99772.47;4952511;28;20050;-55
2022/01/11 04:48:48;;;;;;;46.43;22.07;;;;;;;-0.74;100.00;99769.81;4952105;28;20388;-57
2022/01/11 04:51:14;;;;;;;46.70;24.30;;;;;;;-0.75;100.00;99777.28;4952100;28;20091;-56
2022/01/11 04:53:40;;;;;;;58.13;25.87;;;;;;;-0.82;100.00;99781.22;4954150;28;20034;-54
2022/01/11 04:56:06;;;;;;;46.67;23.57;;;;;;;-0.80;100.00;99791.34;4956976;28;20085;-54
2022/01/11 04:58:31;;;;;;;49.70;23.40;;;;;;;-0.76;100.00;99791.53;4952665;28;20058;-57
2022/01/11 05:00:57;;;;;;;52.63;24.33;;;;;;;-0.79;100.00;99790.53;4955310;28;20035;-56
2022/01/11 05:03:22;;;;;;;57.73;25.53;;;;;;;-0.78;100.00;99799.81;4956918;28;20101;-55
2022/01/11 05:05:48;;;;;;;50.77;24.40;;;;;;;-0.77;100.00;99794.88;4954964;28;20479;-56
2022/01/11 05:08:14;;;;;;;49.70;24.57;;;;;;;-0.82;100.00;99800.47;4953709;28;20043;-56
2022/01/11 05:10:42;;;;;;;54.50;26.80;;;;;;;-0.80;100.00;99801.41;4958111;28;20046;-55
2022/01/11 05:13:15;;;;;;;57.53;26.77;;;;;;;-0.80;100.00;99804.78;4956176;28;20058;-57
2022/01/11 05:15:41;;;;;;;52.00;23.90;;;;;;;-0.84;100.00;99812.13;4927523;29;20060;-57
2022/01/11 05:18:07;;;;;;;51.93;24.37;;;;;;;-0.79;100.00;99805.66;4914647;29;20063;-55
2022/01/11 05:20:34;;;;;;;51.43;23.60;;;;;;;-0.81;100.00;99804.72;4915560;29;20126;-54
2022/01/11 05:23:02;;;;;;;55.23;24.57;;;;;;;-0.72;100.00;99805.97;4918205;29;20036;-55
2022/01/11 05:25:27;;;;;;;50.50;23.93;;;;;;;-0.75;100.00;99817.56;4915998;29;20040;-57
2022/01/11 05:27:54;;;;;;;51.73;24.87;;;;;;;-0.74;100.00;99817.66;4914082;29;20120;-55
2022/01/11 05:30:20;;;;;;;54.70;25.03;;;;;;;-0.76;100.00;99813.31;4918250;29;20051;-57
2022/01/11 05:32:48;;;;;;;54.87;25.10;;;;;;;-0.67;100.00;99828.84;4915529;29;20040;-57
2022/01/11 05:35:15;;;;;;;55.33;26.37;;;;;;;-0.65;100.00;99830.66;4914240;29;20040;-56
2022/01/11 05:37:41;;;;;;;47.23;23.60;;;;;;;-0.70;100.00;99834.63;4916710;29;20036;-56
2022/01/11 05:40:09;;;;;;;56.47;27.10;;;;;;;-0.64;100.00;99854.19;4917065;29;20068;-56
2022/01/11 05:42:35;;;;;;;55.10;22.73;;;;;;;-0.57;100.00;99843.56;4914766;29;20043;-55
2022/01/11 05:45:01;;;;;;;50.77;25.00;;;;;;;-0.56;100.00;99847.81;4913453;29;20047;-57
2022/01/11 05:47:26;;;;;;;47.67;24.07;;;;;;;-0.60;100.00;99845.97;4914954;29;20675;-54
2022/01/11 05:49:52;;;;;;;53.77;27.63;;;;;;;-0.75;100.00;99852.81;4916466;29;20032;-53
2022/01/11 05:52:17;;;;;;;52.37;26.37;;;;;;;-0.67;100.00;99852.38;4913023;29;20111;-54
2022/01/11 05:54:43;;;;;;;51.87;23.87;;;;;;;-0.72;100.00;99855.50;4914415;29;20126;-57
2022/01/11 05:57:09;;;;;;;52.67;24.50;;;;;;;-0.66;100.00;99860.78;4916313;29;20454;-57
2022/01/11 05:59:34;;;;;;;51.90;25.13;;;;;;;-0.67;100.00;99854.03;4917867;29;20036;-56
2022/01/11 06:02:00;;;;;;;55.10;25.00;;;;;;;-0.64;100.00;99859.22;4915541;29;20051;-58
2022/01/11 06:04:25;;;;;;;49.83;23.63;;;;;;;-0.66;100.00;99869.22;4913625;29;20523;-62
2022/01/11 06:06:51;;;;;;;50.87;22.63;;;;;;;-0.68;100.00;99870.78;4918069;29;20060;-60
2022/01/11 06:09:17;;;;;;;51.13;24.13;;;;;;;-0.69;100.00;99870.72;4919046;29;20035;-59
2022/01/11 06:11:43;;;;;;;56.57;23.93;;;;;;;-0.75;100.00;99875.47;4917093;29;20207;-58
2022/01/11 06:14:08;;;;;;;49.30;23.93;;;;;;;-0.67;100.00;99872.50;4917611;29;20048;-57
2022/01/11 06:16:34;;;;;;;51.70;22.70;;;;;;;-0.68;100.00;99885.88;4943688;28;20059;-58
2022/01/11 06:19:00;;;;;;;51.10;22.43;;;;;;;-0.62;100.00;99892.88;4954810;28;20042;-59
2022/01/11 06:21:26;;;;;;;52.23;24.70;;;;;;;-0.60;100.00;99893.81;4955970;28;20034;-58
2022/01/11 06:23:51;;;;;;;47.07;22.90;;;;;;;-0.79;100.00;99891.22;4953327;28;20033;-58
2022/01/11 06:26:17;;;;;;;48.77;21.53;;;;;;;-0.73;100.00;99906.63;4958223;28;20027;-59
2022/01/11 06:28:43;;;;;;;49.47;23.87;;;;;;;-0.83;100.00;99907.84;4957511;28;20070;-58
2022/01/11 06:31:09;;;;;;;46.73;22.53;;;;;;;-0.81;100.00;99905.41;4946499;28;20036;-58
2022/01/11 06:33:34;;;;;;;55.83;24.60;;;;;;;-0.83;100.00;99912.03;4940352;28;20040;-54
2022/01/11 06:36:00;;;;;;;51.50;24.10;;;;;;;-0.91;100.00;99911.69;4958481;28;20019;-56
2022/01/11 06:38:25;;;;;;;46.17;21.00;;;;;;;-0.86;100.00;99922.81;4959430;28;20038;-56
2022/01/11 06:40:51;;;;;;;47.67;21.43;;;;;;;-0.86;100.00;99921.97;4955657;28;20070;-56
2022/01/11 06:43:16;;;;;;;49.57;23.27;;;;;;;-0.87;100.00;99928.66;4937800;28;20040;-57
2022/01/11 06:45:42;;;;;;;52.70;22.57;;;;;;;-0.86;100.00;99922.81;4954367;28;20033;-56
2022/01/11 06:48:09;;;;;;;49.23;23.37;;;;;;;-0.78;100.00;99926.56;4952281;28;20117;-54
2022/01/11 06:50:34;;;;;;;51.10;23.80;;;;;;;-0.81;100.00;99936.50;4948413;28;20043;-57
2022/01/11 06:53:00;;;;;;;49.20;24.27;;;;;;;-0.82;100.00;99941.44;4949782;28;20462;-58
2022/01/11 06:55:26;;;;;;;51.60;21.70;;;;;;;-0.76;100.00;99941.72;4952452;28;20035;-57
2022/01/11 06:57:51;;;;;;;48.37;23.03;;;;;;;-0.79;100.00;99944.97;4952047;28;20054;-55
2022/01/11 07:00:18;;;;;;;50.83;23.97;;;;;;;-0.82;100.00;99954.03;4948903;28;20457;-57
2022/01/11 07:02:46;;;;;;;47.10;22.17;;;;;;;-0.80;100.00;99952.44;4950688;28;20349;-58
2022/01/11 07:05:13;;;;;;;49.20;22.17;;;;;;;-0.66;100.00;99952.31;4951263;28;20079;-57
2022/01/11 07:07:39;;;;;;;48.37;22.40;;;;;;;-0.74;100.00;99958.63;4952927;28;20131;-58
2022/01/11 07:10:05;;;;;;;44.43;22.63;;;;;;;-0.69;100.00;99971.44;4934160;28;20031;-56
2022/01/11 07:12:31;;;;;;;49.33;23.77;;;;;;;-0.58;100.00;99977.81;4950519;28;20031;-57
2022/01/11 07:14:56;;;;;;;49.33;22.50;;;;;;;-0.73;100.00;99974.63;4951928;28;20035;-54
2022/01/11 07:17:23;;;;;;;50.33;24.20;;;;;;;-0.67;100.00;99983.31;4949882;28;20588;-56
2022/01/11 07:19:48;;;;;;;48.77;23.63;;;;;;;-0.69;100.00;99984.03;4949683;28;20035;-58
2022/01/11 07:22:14;;;;;;;50.57;23.70;;;;;;;-0.74;100.00;99982.94;4951634;28;20054;-57
2022/01/11 07:24:39;;;;;;;46.30;21.93;;;;;;;-0.92;100.00;99983.78;4944831;28;20276;-55
2022/01/11 07:27:05;;;;;;;47.53;23.47;;;;;;;-0.75;100.00;99998.84;4950378;28;20023;-56
2022/01/11 07:29:31;;;;;;;42.07;20.93;;;;;;;-0.85;100.00;99989.13;4953459;28;20030;-57
2022/01/11 07:31:56;;;;;;;47.57;24.07;;;;;;;-0.83;100.00;99995.97;4952996;28;20038;-56
2022/01/11 07:34:22;;;;;;;48.30;21.73;;;;;;;-0.89;100.00;99992.31;4944955;28;20451;-57
2022/01/11 07:36:47;;;;;;;52.60;23.83;;;;;;;-0.81;100.00;99998.56;4954861;28;20397;-58
2022/01/11 07:39:13;;;;;;;49.57;22.97;;;;;;;-0.69;100.00;100002.53;4951005;28;20386;-57
2022/01/11 07:41:39;;;;;;;50.03;21.47;;;;;;;-0.68;100.00;100000.88;4951114;28;20216;-55
2022/01/11 07:44:05;;;;;;;45.00;21.20;;;;;;;-0.74;100.00;99998.91;4950127;28;20399;-56
2022/01/11 07:46:30;;;;;;;46.10;22.20;;;;;;;-0.66;100.00;100006.81;4953377;28;20038;-57
2022/01/11 07:48:57;;;;;;;40.63;21.03;;;;;;;-0.67;100.00;100013.50;4951634;28;20031;-55
2022/01/11 07:51:22;;;;;;;44.33;21.83;;;;;;;-0.73;100.00;100009.84;4954918;28;20416;-57
2022/01/11 07:53:49;;;;;;;43.83;21.47;;;;;;;-0.76;100.00;100007.16;4953812;28;20031;-57
2022/01/11 07:56:15;;;;;;;40.93;20.17;;;;;;;-0.65;100.00;100016.13;4949969;28;20046;-56
2022/01/11 07:58:40;;;;;;;42.10;21.53;;;;;;;-0.64;100.00;100020.38;4950128;28;20039;-57
2022/01/11 08:01:05;;;;;;;51.30;21.63;;;;;;;-0.68;100.00;100019.34;4950721;28;20586;-57
2022/01/11 08:03:31;;;;;;;43.50;19.57;;;;;;;-0.62;100.00;100026.31;4952310;28;20273;-56
2022/01/11 08:05:56;;;;;;;39.77;18.97;;;;;;;-0.66;100.00;100027.84;4949415;28;20086;-55
2022/01/11 08:08:22;;;;;;;42.83;22.53;;;;;;;-0.62;100.00;100029.72;4947444;28;20075;-53
2022/01/11 08:10:47;;;;;;;58.33;24.63;;;;;;;-0.64;100.00;100030.44;4951450;28;20086;-55
2022/01/11 08:13:13;;;;;;;54.83;24.10;;;;;;;-0.55;100.00;100026.69;4953966;28;20588;-58
2022/01/11 08:15:38;;;;;;;48.00;21.47;;;;;;;-0.50;100.00;100019.34;4948964;28;20076;-58
2022/01/11 08:18:05;;;;;;;40.10;19.67;;;;;;;-0.55;100.00;100016.59;4950378;28;20039;-54
2022/01/11 08:20:31;;;;;;;42.00;19.17;;;;;;;-0.49;100.00;100019.44;4951776;28;20065;-57
2022/01/11 08:22:57;;;;;;;45.93;20.93;;;;;;;-0.47;100.00;100019.50;4952476;28;20310;-57
2022/01/11 08:25:24;;;;;;;51.53;23.93;;;;;;;-0.43;100.00;100018.84;4946774;28;20647;-58
2022/01/11 08:27:49;;;;;;;46.37;20.63;;;;;;;-0.36;100.00;100018.34;4951891;28;20041;-58
2022/01/11 08:30:15;;;;;;;38.23;18.67;;;;;;;-0.38;100.00;100019.91;4949080;28;20031;-57
2022/01/11 08:32:41;;;;;;;39.37;18.77;;;;;;;-0.49;100.00;100024.47;4949019;28;20114;-58
2022/01/11 08:35:07;;;;;;;41.80;18.80;;;;;;;-0.56;100.00;100024.97;4949815;28;20071;-57
2022/01/11 08:37:32;;;;;;;47.80;22.03;;;;;;;-0.47;100.00;100027.91;4952569;28;20466;-57
2022/01/11 08:39:58;;;;;;;42.20;20.20;;;;;;;-0.44;100.00;100027.19;4953473;28;20031;-58
2022/01/11 08:42:25;;;;;;;45.33;20.27;;;;;;;-0.32;100.00;100035.31;4950108;28;20055;-57
2022/01/11 08:44:50;;;;;;;45.03;22.07;;;;;;;-0.39;100.00;100034.97;4949235;28;20381;-57
2022/01/11 08:47:18;;;;;;;37.07;18.83;;;;;;;-0.60;100.00;100033.19;4951670;28;20031;-58
2022/01/11 08:49:44;;;;;;;45.43;20.83;;;;;;;-0.66;100.00;100035.38;4952449;28;20536;-58
2022/01/11 08:52:10;;;;;;;44.90;20.00;;;;;;;-0.63;100.00;100038.06;4951628;28;20410;-57
2022/01/11 08:54:36;;;;;;;42.97;21.90;;;;;;;-0.59;100.00;100036.53;4949622;28;20031;-61
2022/01/11 08:57:03;;;;;;;42.23;19.90;;;;;;;-0.36;100.00;100037.63;4952856;28;20090;-60
2022/01/11 08:59:29;;;;;;;42.40;20.83;;;;;;;-0.40;100.00;100044.19;4954727;28;20117;-59
2022/01/11 09:01:57;;;;;;;41.97;20.60;;;;;;;-0.46;100.00;100043.88;4949726;28;20136;-60
2022/01/11 09:04:23;;;;;;;44.20;18.17;;;;;;;-0.52;100.00;100052.03;4950126;28;20058;-59
2022/01/11 09:06:50;;;;;;;37.23;20.40;;;;;;;-0.57;100.00;100045.03;4951592;28;20058;-60
2022/01/11 09:09:16;;;;;;;45.40;19.57;;;;;;;-0.55;100.00;100053.50;4937646;28;20548;-59
2022/01/11 09:11:42;;;;;;;47.90;21.13;;;;;;;-0.37;100.00;100053.53;4948656;28;20024;-60
2022/01/11 09:14:08;;;;;;;33.53;17.07;;;;;;;-0.34;100.00;100054.53;4950460;28;20065;-58
2022/01/11 09:16:34;;;;;;;41.43;19.60;;;;;;;-0.36;100.00;100058.66;4951515;28;20482;-59
2022/01/11 09:18:59;;;;;;;46.77;20.87;;;;;;;-0.22;100.00;100056.78;4936176;28;20037;-58
2022/01/11 09:21:25;;;;;;;36.07;18.00;;;;;;;-0.29;100.00;100052.22;4949650;28;20035;-58
2022/01/11 09:23:51;;;;;;;38.10;18.07;;;;;;;-0.20;100.00;100053.53;4947294;28;20043;-58
2022/01/11 09:26:17;;;;;;;38.53;18.47;;;;;;;-0.17;100.00;100056.19;4950524;28;20073;-59
2022/01/11 09:28:43;;;;;;;40.57;19.63;;;;;;;-0.07;100.00;100052.44;4951552;28;20430;-59
2022/01/11 09:31:08;;;;;;;37.97;18.23;;;;;;;0.04;100.00;100048.75;4950827;28;20864;-60
2022/01/11 09:33:34;;;;;;;41.63;20.10;;;;;;;-0.08;100.00;100038.97;4947062;28;20042;-58
2022/01/11 09:36:00;;;;;;;38.33;18.30;;;;;;;0.00;100.00;100050.25;4949369;28;20047;-55
2022/01/11 09:38:27;;;;;;;38.47;18.93;;;;;;;-0.04;100.00;100048.38;4950588;28;20062;-58
2022/01/11 09:40:55;;;;;;;34.23;16.80;;;;;;;-0.01;100.00;100056.09;4953850;28;20468;-57
2022/01/11 09:43:22;;;;;;;36.93;18.53;;;;;;;-0.02;100.00;100048.47;4953048;28;20078;-59
2022/01/11 09:45:49;;;;;;;39.27;19.13;;;;;;;0.05;100.00;100064.72;4957737;28;20030;-57
2022/01/11 09:48:18;;;;;;;37.47;17.93;;;;;;;-0.13;100.00;100067.28;4953080;28;20039;-59
2022/01/11 09:50:44;;;;;;;39.97;18.47;;;;;;;0.11;100.00;100065.88;4954006;28;20032;-58
2022/01/11 09:53:10;;;;;;;34.17;16.30;;;;;;;0.22;100.00;100076.44;4954477;28;20517;-57
2022/01/11 09:55:36;;;;;;;35.10;16.37;;;;;;;-0.05;100.00;100056.78;4957966;28;20035;-59
2022/01/11 09:58:03;;;;;;;32.83;15.93;;;;;;;0.06;100.00;100068.97;4954089;28;20129;-58
2022/01/11 10:00:29;;;;;;;36.03;17.47;;;;;;;-0.02;100.00;100069.50;4951420;28;20063;-59
2022/01/11 10:02:54;;;;;;;40.17;17.03;;;;;;;0.13;100.00;100065.97;4952506;28;20070;-55
2022/01/11 10:05:20;;;;;;;35.13;16.63;;;;;;;0.12;100.00;100067.63;4955121;28;20221;-59
2022/01/11 10:07:46;;;;;;;33.77;15.60;;;;;;;-0.01;100.00;100060.28;4952079;28;20046;-58
2022/01/11 10:10:14;;;;;;;42.37;18.83;;;;;;;0.07;100.00;100064.00;4952318;28;20034;-57
2022/01/11 10:12:50;;;;;;;34.63;16.50;;;;;;;0.18;100.00;100062.81;4955876;28;20405;-61
2022/01/11 10:15:29;;;;;;;39.67;17.33;;;;;;;0.23;100.00;100043.72;4953982;28;20098;-59
2022/01/11 10:17:54;;;;;;;37.50;15.57;;;;;;;0.14;100.00;100044.97;4951038;28;20035;-60
2022/01/11 10:20:24;;;;;;;33.33;16.80;;;;;;;0.02;100.00;100041.91;4952191;28;20050;-59
2022/01/11 10:22:53;;;;;;;36.23;16.33;;;;;;;0.19;100.00;100039.34;4954617;28;20157;-60
2022/01/11 10:25:18;;;;;;;31.30;15.03;;;;;;;-0.13;100.00;100032.84;4955039;28;20135;-60
2022/01/11 10:27:53;;;;;;;36.83;17.77;;;;;;;0.25;100.00;100037.13;4956029;28;20043;-59
2022/01/11 10:30:23;;;;;;;28.48;12.27;;;;;;;0.22;100.00;100026.00;4952629;28;20043;-59
2022/01/11 10:32:50;;;;;;;31.70;15.20;;;;;;;0.10;100.00;100016.25;4957388;28;20161;-58
2022/01/11 10:35:24;;;;;;;32.13;14.67;;;;;;;0.20;100.00;100022.56;4954719;28;20046;-58
2022/01/11 10:38:03;;;;;;;26.83;14.27;;;;;;;-0.23;100.00;100023.16;4952027;28;20039;-59
2022/01/11 10:40:34;;;;;;;33.27;16.87;;;;;;;-0.18;100.00;100013.28;4953343;28;20650;-58
2022/01/11 10:43:20;;;;;;;32.97;13.93;;;;;;;-0.22;100.00;100016.47;4951382;28;20063;-55
2022/01/11 10:45:49;;;;;;;33.37;16.50;;;;;;;-0.23;100.00;100014.72;4952025;28;20060;-58
2022/01/11 10:48:24;;;;;;;36.97;17.03;;;;;;;-0.29;100.00;100022.84;4951431;28;20442;-58
2022/01/11 10:50:54;;;;;;;34.63;15.65;;;;;;;-0.15;100.00;100026.03;4952210;28;20042;-59
2022/01/11 10:53:25;;;;;;;35.67;16.50;;;;;;;-0.24;100.00;100023.94;4955543;28;20043;-58
2022/01/11 10:55:55;;;;;;;39.73;16.83;;;;;;;-0.25;100.00;100017.16;4951891;28;20775;-59
2022/01/11 10:58:22;;;;;;;33.13;14.67;;;;;;;-0.37;100.00;100011.56;4951560;28;20034;-59
2022/01/11 11:00:50;;;;;;;32.90;16.80;;;;;;;-0.31;100.00;100021.94;4955212;28;20103;-60
2022/01/11 11:03:19;;;;;;;31.33;15.20;;;;;;;-0.17;100.00;100025.94;4953173;28;20103;-60
2022/01/11 11:05:46;;;;;;;37.13;15.17;;;;;;;-0.21;100.00;100034.16;4951208;28;20023;-60
2022/01/11 11:08:14;;;;;;;30.50;14.80;;;;;;;-0.05;100.00;100036.59;4950379;28;20043;-60